Time;durP1;ratioP1;P1;durP2;ratioP2;P2;SDS_P1;SDS_P2;PMS_P1;PMS_P2;Temp;Humidity;BMP_temperature;BMP_pressure;BME280_temperature;BME280_humidity;BME280_pressure;Samples;Min_cycle;Max_cycle;Signal;HPM_P1;HPM_P2
2022/04/29 00:00:38;;;;;;;13.97;6.63;;;6.20;99.90;;;;;;5091225;28;20989;-57
2022/04/29 00:03:05;;;;;;;14.73;7.27;;;6.10;1.00;;;;;;5094164;28;20199;-57
2022/04/29 00:05:31;;;;;;;17.77;7.00;;;6.00;1.00;;;;;;5112388;28;20823;-57
2022/04/29 00:07:56;;;;;;;16.23;7.17;;;5.90;1.00;;;;;;5111472;28;20418;-57
2022/04/29 00:10:22;;;;;;;16.23;7.10;;;5.80;1.00;;;;;;5094025;28;20216;-57
2022/04/29 00:12:48;;;;;;;16.97;6.67;;;5.70;1.00;;;;;;5100927;28;20210;-57
2022/04/29 00:15:16;;;;;;;11.57;6.20;;;5.70;1.00;;;;;;5112853;28;20184;-58
2022/04/29 00:17:42;;;;;;;16.20;6.90;;;5.60;1.00;;;;;;5102954;28;20477;-57
2022/04/29 00:20:09;;;;;;;19.50;8.13;;;5.60;1.00;;;;;;5097210;28;20966;-57
2022/04/29 00:22:35;;;;;;;19.33;8.20;;;5.50;1.00;;;;;;5109093;28;20487;-58
2022/04/29 00:25:01;;;;;;;16.60;7.10;;;5.50;1.00;;;;;;5093826;28;20477;-57
2022/04/29 00:27:27;;;;;;;16.40;6.77;;;5.40;1.00;;;;;;5094292;28;20920;-57
2022/04/29 00:29:53;;;;;;;27.33;8.00;;;5.50;1.00;;;;;;5114194;28;20564;-57
2022/04/29 00:32:18;;;;;;;16.87;8.00;;;5.50;1.00;;;;;;5103835;28;20193;-58
2022/04/29 00:34:45;;;;;;;18.57;7.83;;;5.40;9.90;;;;;;5094464;28;20603;-57
2022/04/29 00:37:10;;;;;;;21.50;8.07;;;5.50;83.80;;;;;;5101472;28;20188;-57
2022/04/29 00:39:37;;;;;;;19.77;8.00;;;5.50;99.90;;;;;;5111573;28;20484;-58
2022/04/29 00:42:13;;;;;;;12.77;7.10;;;5.40;99.90;;;;;;5110596;28;20241;-58
2022/04/29 00:44:40;;;;;;;20.90;8.40;;;5.30;99.90;;;;;;5106508;28;20427;-58
2022/04/29 00:47:09;;;;;;;14.60;8.67;;;5.30;99.90;;;;;;5096099;28;20454;-57
2022/04/29 00:49:34;;;;;;;15.37;6.83;;;5.20;99.90;;;;;;5107513;28;20443;-58
2022/04/29 00:52:00;;;;;;;16.80;7.70;;;5.20;99.90;;;;;;5093596;28;20438;-58
2022/04/29 00:54:30;;;;;;;20.03;8.50;;;5.10;99.90;;;;;;5097018;28;20650;-58
2022/04/29 00:56:57;;;;;;;26.97;8.10;;;5.10;99.90;;;;;;5113537;28;20199;-58
2022/04/29 00:59:38;;;;;;;27.33;8.90;;;5.10;1.00;;;;;;5097288;28;20465;-58
2022/04/29 01:02:07;;;;;;;20.87;8.43;;;5.10;1.00;;;;;;5113489;28;20937;-58
2022/04/29 01:04:59;;;;;;;25.67;8.97;;;5.10;1.00;;;;;;5104877;28;20964;-57
2022/04/29 01:07:29;;;;;;;24.67;8.47;;;5.10;1.00;;;;;;5098721;28;20441;-58
2022/04/29 01:09:55;;;;;;;21.40;8.40;;;5.10;1.00;;;;;;5101992;28;20439;-58
2022/04/29 01:12:23;;;;;;;14.00;7.40;;;5.10;1.00;;;;;;5106063;28;20461;-58
2022/04/29 01:14:49;;;;;;;26.40;8.97;;;5.10;1.00;;;;;;5103887;28;20430;-58
2022/04/29 01:17:14;;;;;;;17.43;9.40;;;5.00;1.00;;;;;;5093729;28;20443;-57
2022/04/29 01:19:40;;;;;;;17.40;9.07;;;5.00;1.00;;;;;;5099876;28;20228;-57
2022/04/29 01:22:07;;;;;;;22.60;8.30;;;5.10;1.00;;;;;;5111970;28;20238;-58
2022/04/29 01:24:33;;;;;;;25.20;8.77;;;5.10;1.00;;;;;;5092705;28;20193;-58
2022/04/29 01:26:58;;;;;;;21.70;8.20;;;5.10;1.00;;;;;;5092588;28;20453;-58
2022/04/29 01:29:25;;;;;;;19.17;9.00;;;5.10;1.00;;;;;;5111984;28;20576;-58
2022/04/29 01:31:53;;;;;;;27.63;9.77;;;5.00;1.00;;;;;;5112234;28;20238;-58
2022/04/29 01:34:19;;;;;;;22.30;8.73;;;5.00;1.00;;;;;;5096504;28;20894;-58
2022/04/29 01:36:45;;;;;;;14.43;7.70;;;5.00;6.40;;;;;;5097209;28;20420;-58
2022/04/29 01:39:10;;;;;;;23.97;9.20;;;5.00;77.30;;;;;;5092100;28;20224;-57
2022/04/29 01:41:36;;;;;;;20.00;9.00;;;4.90;99.90;;;;;;5095809;28;20192;-59
2022/04/29 01:44:01;;;;;;;20.30;8.20;;;4.90;99.90;;;;;;5110986;28;20193;-51
2022/04/29 01:46:27;;;;;;;22.73;9.30;;;5.00;99.90;;;;;;5095214;28;20275;-50
2022/04/29 01:48:52;;;;;;;20.83;9.70;;;4.90;99.90;;;;;;5110507;28;20295;-50
2022/04/29 01:51:18;;;;;;;22.83;8.77;;;4.90;99.90;;;;;;5092157;28;20208;-51
2022/04/29 01:53:44;;;;;;;28.93;8.87;;;4.90;99.90;;;;;;5091931;28;20188;-51
2022/04/29 01:56:09;;;;;;;20.30;9.50;;;4.80;99.90;;;;;;5109977;28;20198;-51
2022/04/29 01:58:35;;;;;;;23.30;9.00;;;4.80;1.00;;;;;;5103976;28;20217;-50
2022/04/29 02:01:00;;;;;;;29.73;9.43;;;4.80;1.00;;;;;;5092341;28;20263;-51
2022/04/29 02:03:26;;;;;;;22.10;8.70;;;4.90;1.00;;;;;;5097719;28;20227;-51
2022/04/29 02:05:51;;;;;;;21.37;8.97;;;4.80;1.00;;;;;;5112216;28;20241;-51
2022/04/29 02:08:17;;;;;;;18.57;9.23;;;4.90;1.00;;;;;;5107620;28;20189;-51
2022/04/29 02:10:42;;;;;;;24.27;9.17;;;4.80;1.00;;;;;;5091810;28;20197;-51
2022/04/29 02:13:08;;;;;;;25.13;9.23;;;4.80;1.00;;;;;;5094013;28;20212;-51
2022/04/29 02:15:34;;;;;;;31.77;10.50;;;4.80;1.00;;;;;;5092471;28;20263;-51
2022/04/29 02:18:00;;;;;;;20.80;9.27;;;4.80;99.90;;;;;;5091861;28;20498;-51
2022/04/29 02:20:26;;;;;;;26.50;10.33;;;4.80;99.90;;;;;;5112059;28;20220;-51
2022/04/29 02:22:53;;;;;;;23.50;9.17;;;4.80;1.00;;;;;;5100076;28;20781;-51
2022/04/29 02:25:19;;;;;;;26.23;9.30;;;4.80;1.00;;;;;;5091576;28;20411;-50
2022/04/29 02:27:44;;;;;;;18.27;9.80;;;4.80;1.00;;;;;;5104402;28;20426;-51
2022/04/29 02:30:10;;;;;;;18.10;9.30;;;4.80;1.00;;;;;;5111605;28;20417;-50
2022/04/29 02:32:36;;;;;;;29.43;9.80;;;4.80;1.00;;;;;;5080128;28;20197;-50
2022/04/29 02:35:01;;;;;;;18.37;9.00;;;4.80;1.00;;;;;;5095772;28;20475;-50
2022/04/29 02:37:27;;;;;;;16.80;8.63;;;4.80;99.90;;;;;;5093228;28;20193;-51
2022/04/29 02:39:53;;;;;;;20.80;9.53;;;4.70;1.00;;;;;;5108269;28;20213;-51
2022/04/29 02:42:19;;;;;;;17.90;9.40;;;4.70;98.10;;;;;;5103781;28;20191;-50
2022/04/29 02:44:44;;;;;;;19.07;9.33;;;4.70;99.90;;;;;;5100435;28;20907;-51
2022/04/29 02:47:10;;;;;;;23.07;9.40;;;4.80;99.90;;;;;;5098905;28;20522;-51
2022/04/29 02:49:42;;;;;;;24.57;10.20;;;4.70;27.10;;;;;;5111276;28;20267;-51
2022/04/29 02:52:09;;;;;;;28.97;9.53;;;4.70;39.10;;;;;;5101111;28;20625;-51
2022/04/29 02:54:35;;;;;;;17.60;9.30;;;4.70;96.60;;;;;;5091256;28;20468;-51
2022/04/29 02:57:01;;;;;;;16.53;8.90;;;4.70;99.90;;;;;;5095606;28;20426;-50
2022/04/29 02:59:27;;;;;;;21.10;9.00;;;4.70;99.90;;;;;;5099307;28;20576;-51
2022/04/29 03:01:52;;;;;;;27.10;9.97;;;4.70;99.90;;;;;;5106566;28;20522;-53
2022/04/29 03:04:18;;;;;;;33.70;9.93;;;4.60;99.90;;;;;;5111029;28;20188;-50
2022/04/29 03:06:44;;;;;;;18.30;9.10;;;4.70;99.90;;;;;;5106979;28;20655;-51
2022/04/29 03:09:10;;;;;;;25.10;9.60;;;4.60;99.90;;;;;;5090861;28;20204;-50
2022/04/29 03:11:37;;;;;;;20.53;9.60;;;4.60;99.90;;;;;;5093531;28;20185;-50
2022/04/29 03:14:03;;;;;;;18.10;8.70;;;4.60;99.90;;;;;;5098999;28;20507;-50
2022/04/29 03:16:28;;;;;;;23.70;10.40;;;4.60;1.00;;;;;;5091690;28;20430;-51
2022/04/29 03:18:53;;;;;;;18.23;8.87;;;4.60;99.90;;;;;;5090352;28;20244;-50
2022/04/29 03:21:20;;;;;;;17.43;10.53;;;4.60;1.00;;;;;;5073679;28;20196;-50
2022/04/29 03:23:46;;;;;;;21.17;9.20;;;4.60;1.00;;;;;;5090861;28;20181;-51
2022/04/29 03:26:12;;;;;;;21.20;9.07;;;4.60;1.00;;;;;;5093051;28;20927;-51
2022/04/29 03:28:38;;;;;;;17.63;9.17;;;4.60;1.00;;;;;;5111198;28;20433;-52
2022/04/29 03:31:04;;;;;;;20.53;10.00;;;4.60;99.90;;;;;;5106003;28;20181;-50
2022/04/29 03:33:30;;;;;;;23.77;10.40;;;4.50;63.60;;;;;;5090857;28;20185;-50
2022/04/29 03:35:55;;;;;;;20.73;9.13;;;4.50;99.90;;;;;;5092791;28;20899;-51
2022/04/29 03:38:21;;;;;;;18.60;9.90;;;4.50;1.00;;;;;;5094180;28;20543;-50
2022/04/29 03:40:47;;;;;;;23.67;10.07;;;4.50;99.90;;;;;;5090240;28;20201;-51
2022/04/29 03:43:12;;;;;;;26.43;10.40;;;4.50;1.00;;;;;;5106099;28;20461;-50
2022/04/29 03:45:38;;;;;;;17.23;8.80;;;4.50;1.00;;;;;;5094357;28;20646;-50
2022/04/29 03:48:04;;;;;;;19.20;9.30;;;4.50;1.00;;;;;;5090258;28;20748;-51
2022/04/29 03:50:30;;;;;;;19.73;9.57;;;4.50;1.00;;;;;;5108095;28;20193;-50
2022/04/29 03:52:59;;;;;;;21.50;9.00;;;4.50;1.00;;;;;;5110599;28;20414;-51
2022/04/29 03:55:26;;;;;;;23.20;9.47;;;4.50;47.50;;;;;;5093748;28;20426;-50
2022/04/29 03:57:53;;;;;;;17.97;9.70;;;4.50;17.50;;;;;;5090166;28;20415;-51
2022/04/29 04:00:20;;;;;;;20.67;9.50;;;4.50;99.90;;;;;;5092753;28;20461;-50
2022/04/29 04:02:45;;;;;;;22.70;9.70;;;4.50;99.90;;;;;;5101959;28;20426;-51
2022/04/29 04:05:12;;;;;;;23.70;9.70;;;4.50;99.90;;;;;;5090230;28;20752;-51
2022/04/29 04:07:38;;;;;;;22.33;9.90;;;4.60;99.90;;;;;;5103261;28;20192;-51
2022/04/29 04:10:05;;;;;;;20.57;9.67;;;4.50;1.00;;;;;;5110352;28;20414;-50
2022/04/29 04:12:46;;;;;;;15.80;8.60;;;4.50;1.00;;;;;;5110340;28;20430;-50
2022/04/29 04:15:12;;;;;;;17.30;9.33;;;4.50;1.00;;;;;;5110040;28;20513;-50
2022/04/29 04:17:38;;;;;;;20.03;9.03;;;4.60;1.00;;;;;;5090032;28;20439;-50
2022/04/29 04:20:06;;;;;;;13.83;8.80;;;4.60;99.90;;;;;;5090319;28;21289;-51
2022/04/29 04:22:35;;;;;;;19.30;9.90;;;4.60;99.90;;;;;;5109419;28;20457;-51
2022/04/29 04:25:11;;;;;;;20.97;10.20;;;4.60;1.00;;;;;;5109956;28;20811;-51
2022/04/29 04:27:37;;;;;;;18.97;9.67;;;4.60;1.00;;;;;;5090208;28;20407;-51
2022/04/29 04:30:04;;;;;;;16.10;8.87;;;4.60;1.00;;;;;;5076335;28;20438;-51
2022/04/29 04:32:33;;;;;;;16.90;8.63;;;4.60;1.00;;;;;;5109525;28;20434;-50
2022/04/29 04:35:00;;;;;;;17.10;9.23;;;4.70;99.90;;;;;;5110021;28;20748;-50
2022/04/29 04:37:27;;;;;;;18.47;9.10;;;4.70;1.00;;;;;;5090772;28;20526;-50
2022/04/29 04:39:57;;;;;;;23.10;9.70;;;4.70;1.00;;;;;;5090678;28;20462;-50
2022/04/29 04:42:23;;;;;;;23.23;10.03;;;4.70;99.90;;;;;;5104913;28;20441;-50
2022/04/29 04:44:50;;;;;;;19.03;9.73;;;4.70;99.90;;;;;;5109412;28;20424;-50
2022/04/29 04:47:16;;;;;;;18.93;9.30;;;4.70;99.90;;;;;;5093183;28;20192;-51
2022/04/29 04:49:42;;;;;;;21.20;9.30;;;4.70;1.00;;;;;;5089672;28;20407;-50
2022/04/29 04:52:08;;;;;;;19.13;9.83;;;4.80;1.00;;;;;;5098139;28;20426;-51
2022/04/29 04:54:34;;;;;;;16.40;9.40;;;4.80;1.00;;;;;;5110171;28;20183;-50
2022/04/29 04:57:00;;;;;;;16.90;8.87;;;4.80;1.00;;;;;;5105156;28;20450;-51
2022/04/29 04:59:26;;;;;;;20.83;9.37;;;4.90;1.00;;;;;;5093505;28;20458;-50
2022/04/29 05:01:51;;;;;;;18.90;8.80;;;4.90;1.00;;;;;;5103191;28;20227;-50
2022/04/29 05:04:17;;;;;;;23.87;10.70;;;5.00;99.90;;;;;;5113810;28;20179;-51
2022/04/29 05:06:42;;;;;;;20.70;10.70;;;5.10;99.90;;;;;;5101060;28;20247;-51
2022/04/29 05:09:08;;;;;;;23.93;10.90;;;5.20;1.00;;;;;;5093616;28;20209;-50
2022/04/29 05:11:34;;;;;;;20.37;10.40;;;5.20;1.00;;;;;;5103858;28;20185;-50
2022/04/29 05:14:00;;;;;;;21.47;10.23;;;5.30;1.00;;;;;;5113490;28;20932;-51
2022/04/29 05:16:26;;;;;;;25.77;10.50;;;5.40;99.90;;;;;;5104212;28;20235;-51
2022/04/29 05:18:51;;;;;;;20.37;9.60;;;5.50;99.90;;;;;;5092945;28;20282;-50
2022/04/29 05:21:17;;;;;;;23.03;9.50;;;5.60;99.90;;;;;;5092746;28;20500;-50
2022/04/29 05:23:43;;;;;;;24.03;9.37;;;5.60;1.00;;;;;;5097247;28;20199;-50
2022/04/29 05:26:09;;;;;;;22.03;9.50;;;5.80;1.00;;;;;;5113061;28;20926;-50
2022/04/29 05:28:35;;;;;;;19.60;8.90;;;5.80;99.90;;;;;;5110727;28;20425;-50
2022/04/29 05:31:02;;;;;;;17.20;8.77;;;5.90;99.90;;;;;;5107659;28;20430;-51
2022/04/29 05:33:28;;;;;;;18.93;9.30;;;6.00;99.90;;;;;;5108214;28;20437;-50
2022/04/29 05:35:54;;;;;;;14.60;9.27;;;6.10;99.90;;;;;;5093130;28;20411;-50
2022/04/29 05:38:20;;;;;;;18.10;10.07;;;6.20;99.90;;;;;;5093996;28;20415;-50
2022/04/29 05:43:30;;;;;;;18.87;8.47;;;6.50;1.00;;;;;;5105702;28;20226;-50
2022/04/29 05:45:56;;;;;;;18.00;8.00;;;6.60;1.00;;;;;;5100829;27;20504;-50
2022/04/29 05:48:22;;;;;;;17.27;8.57;;;6.60;1.00;;;;;;5109951;28;20430;-49
2022/04/29 05:50:48;;;;;;;19.50;9.00;;;6.60;1.00;;;;;;5109582;27;20197;-50
2022/04/29 05:53:15;;;;;;;14.50;9.07;;;6.70;1.00;;;;;;5110107;27;20821;-51
2022/04/29 05:55:41;;;;;;;22.57;8.37;;;6.70;1.00;;;;;;5106573;28;20427;-50
2022/04/29 05:58:06;;;;;;;18.17;8.40;;;6.80;1.00;;;;;;5108013;28;20533;-54
2022/04/29 06:00:32;;;;;;;17.03;8.77;;;6.80;1.00;;;;;;5110733;28;20580;-56
2022/04/29 06:02:58;;;;;;;16.20;7.80;;;6.80;1.00;;;;;;5109633;28;20197;-57
2022/04/29 06:05:24;;;;;;;14.30;7.37;;;6.80;1.00;;;;;;5111621;27;20192;-57
2022/04/29 06:07:50;;;;;;;17.33;8.67;;;7.00;1.00;;;;;;5106969;28;20194;-56
2022/04/29 06:10:15;;;;;;;16.70;7.70;;;7.10;1.00;;;;;;5109305;28;20446;-49
2022/04/29 06:12:42;;;;;;;12.03;7.70;;;7.40;1.00;;;;;;5105887;27;20196;-49
2022/04/29 06:15:13;;;;;;;14.93;7.50;;;7.70;99.90;;;;;;5111509;28;20669;-49
2022/04/29 06:17:39;;;;;;;16.80;7.57;;;8.00;99.90;;;;;;5107528;27;21011;-50
2022/04/29 06:20:05;;;;;;;16.83;7.40;;;8.20;99.90;;;;;;5105818;28;20565;-49
2022/04/29 06:22:31;;;;;;;16.33;7.00;;;8.40;99.90;;;;;;5110905;28;20208;-49
2022/04/29 06:24:57;;;;;;;10.70;6.23;;;8.70;99.90;;;;;;5108566;28;20521;-49
2022/04/29 06:27:23;;;;;;;12.50;7.00;;;8.90;99.90;;;;;;5108842;28;20528;-50
2022/04/29 06:29:48;;;;;;;13.10;6.30;;;9.20;99.90;;;;;;5112003;28;20203;-49
2022/04/29 06:32:14;;;;;;;15.60;6.57;;;9.40;99.90;;;;;;5108032;27;20653;-49
2022/04/29 06:34:40;;;;;;;16.87;7.27;;;9.50;99.90;;;;;;5103868;27;20196;-50
2022/04/29 06:37:06;;;;;;;13.20;6.00;;;9.90;99.90;;;;;;5098570;27;20208;-50
2022/04/29 06:39:32;;;;;;;14.30;7.10;;;10.30;99.90;;;;;;5101423;28;20466;-49
2022/04/29 06:41:57;;;;;;;12.20;5.60;;;10.50;99.90;;;;;;5111387;28;20449;-50
2022/04/29 06:44:23;;;;;;;11.03;5.50;;;10.80;99.90;;;;;;5109087;28;20211;-50
2022/04/29 06:46:50;;;;;;;12.60;6.10;;;10.90;99.90;;;;;;5108221;28;20204;-49
2022/04/29 06:49:16;;;;;;;16.03;5.93;;;10.80;99.90;;;;;;5110195;28;20246;-49
2022/04/29 06:51:42;;;;;;;8.67;5.33;;;10.60;99.90;;;;;;5111368;28;20437;-50
2022/04/29 06:54:08;;;;;;;14.73;5.13;;;10.60;99.90;;;;;;5109639;27;20823;-53
2022/04/29 06:56:33;;;;;;;10.10;5.00;;;10.70;99.90;;;;;;5101498;28;20250;-49
2022/04/29 06:58:59;;;;;;;9.73;5.10;;;10.90;99.90;;;;;;5111718;28;20223;-49
2022/04/29 07:01:25;;;;;;;10.83;5.17;;;11.10;99.90;;;;;;5099799;28;20688;-49
2022/04/29 07:03:51;;;;;;;10.20;5.40;;;11.40;99.90;;;;;;5091783;28;20790;-49
2022/04/29 07:06:17;;;;;;;9.33;4.97;;;11.60;99.90;;;;;;5110709;28;20425;-49
2022/04/29 07:08:43;;;;;;;7.97;5.40;;;11.60;99.90;;;;;;5110290;28;20184;-49
2022/04/29 07:11:08;;;;;;;8.70;5.00;;;11.70;99.90;;;;;;5111191;28;20429;-49
2022/04/29 07:13:34;;;;;;;7.67;4.90;;;12.10;99.90;;;;;;5104148;28;20178;-50
2022/04/29 07:15:59;;;;;;;9.53;5.47;;;12.50;99.90;;;;;;5094018;28;20203;-49
2022/04/29 07:18:25;;;;;;;9.13;5.10;;;12.80;99.90;;;;;;5107241;28;20228;-49
2022/04/29 07:20:50;;;;;;;15.57;5.50;;;13.00;99.90;;;;;;5110970;28;20291;-50
2022/04/29 07:23:16;;;;;;;7.33;5.17;;;13.30;99.90;;;;;;5103660;28;20204;-49
2022/04/29 07:25:42;;;;;;;8.90;5.00;;;13.50;99.90;;;;;;5093368;28;20217;-49
2022/04/29 07:28:07;;;;;;;9.83;5.20;;;13.70;99.90;;;;;;5090622;28;20200;-49
2022/04/29 07:30:33;;;;;;;8.43;5.07;;;13.80;99.90;;;;;;5090488;28;20219;-49
2022/04/29 07:32:58;;;;;;;10.83;5.07;;;13.80;99.90;;;;;;5090295;28;20251;-50
2022/04/29 07:43:36;;;;;;;14.40;4.83;;;13.90;99.90;;;;;;5091420;28;20453;-49
2022/04/29 07:46:03;;;;;;;10.30;3.90;;;14.00;99.90;;;;;;5090318;28;20399;-49
2022/04/29 07:48:29;;;;;;;8.95;4.80;;;14.20;99.90;;;;;;5105414;28;20101;-49
2022/04/29 07:50:54;;;;;;;12.30;5.37;;;14.30;99.90;;;;;;5110646;28;20227;-49
2022/04/29 07:53:20;;;;;;;9.83;4.23;;;14.60;99.90;;;;;;5096671;28;20581;-49
2022/04/29 07:55:45;;;;;;;11.37;4.10;;;15.10;99.90;;;;;;5090248;28;20219;-49
2022/04/29 07:58:12;;;;;;;8.60;3.60;;;15.40;99.90;;;;;;5101802;28;20263;-49
2022/04/29 08:00:38;;;;;;;5.73;3.50;;;15.60;99.90;;;;;;5110432;28;20223;-49
2022/04/29 08:03:04;;;;;;;6.83;3.70;;;15.20;99.90;;;;;;5099265;28;20427;-49
2022/04/29 08:05:31;;;;;;;9.97;3.47;;;15.30;99.90;;;;;;5090188;28;20169;-49
2022/04/29 08:07:59;;;;;;;5.40;3.20;;;15.60;99.90;;;;;;5090439;28;20422;-49
2022/04/29 08:10:34;;;;;;;9.67;3.80;;;15.50;99.90;;;;;;5089957;28;20398;-49
2022/04/29 08:13:02;;;;;;;12.07;3.47;;;15.40;99.90;;;;;;5108878;28;20972;-49
2022/04/29 08:15:29;;;;;;;7.67;3.70;;;15.00;99.90;;;;;;5110145;28;20402;-49
2022/04/29 08:17:55;;;;;;;7.07;3.33;;;14.50;99.90;;;;;;5089554;28;20478;-49
2022/04/29 08:20:21;;;;;;;4.33;2.83;;;13.90;99.90;;;;;;5089777;28;20462;-49
2022/04/29 08:22:47;;;;;;;7.10;3.37;;;13.50;99.90;;;;;;5097444;28;20189;-49
2022/04/29 08:25:15;;;;;;;13.47;3.50;;;13.10;99.90;;;;;;5090192;28;20407;-49
2022/04/29 08:27:41;;;;;;;7.43;3.17;;;12.70;99.90;;;;;;5111192;28;20467;-49
2022/04/29 08:30:07;;;;;;;5.17;3.40;;;12.70;99.90;;;;;;5114287;28;20402;-49
2022/04/29 08:32:43;;;;;;;7.03;3.03;;;12.80;99.90;;;;;;5097390;28;20181;-49
2022/04/29 08:35:10;;;;;;;5.60;3.00;;;13.30;99.90;;;;;;5094034;28;20907;-49
2022/04/29 08:37:44;;;;;;;5.47;2.80;;;13.50;99.90;;;;;;5109763;28;20739;-49
2022/04/29 08:40:13;;;;;;;4.03;2.80;;;13.90;99.90;;;;;;5102470;28;20556;-49
2022/04/29 08:42:40;;;;;;;5.00;3.03;;;14.10;99.90;;;;;;5093548;28;20438;-49
2022/04/29 08:45:10;;;;;;;10.90;3.63;;;13.90;99.90;;;;;;5098334;28;20435;-49
2022/04/29 08:47:38;;;;;;;7.73;3.33;;;13.70;99.90;;;;;;5099546;28;20430;-49
2022/04/29 08:50:10;;;;;;;5.70;3.10;;;13.60;99.90;;;;;;5106188;28;20558;-49
2022/04/29 08:52:35;;;;;;;8.60;3.37;;;13.60;99.90;;;;;;5113884;28;20398;-49
2022/04/29 09:00:33;;;;;;;6.03;2.87;;;14.90;99.90;;;;;;5108751;28;20527;-50
2022/04/29 09:03:02;;;;;;;4.10;3.20;;;15.50;99.90;;;;;;5093158;28;20908;-49
2022/04/29 09:05:27;;;;;;;7.20;3.80;;;16.00;99.90;;;;;;5099176;28;20422;-49
2022/04/29 09:08:01;;;;;;;8.30;3.70;;;16.10;99.90;;;;;;5113556;28;20885;-49
2022/04/29 09:10:35;;;;;;;10.47;3.67;;;16.30;99.90;;;;;;5102662;28;20200;-49
2022/04/29 09:13:13;;;;;;;8.50;3.70;;;16.70;99.90;;;;;;5092922;28;20402;-49
2022/04/29 09:16:04;;;;;;;10.17;3.37;;;17.00;99.90;;;;;;5104605;28;20763;-49
2022/04/29 09:18:43;;;;;;;8.23;3.63;;;17.10;99.90;;;;;;5089580;28;20469;-49
2022/04/29 09:21:19;;;;;;;7.60;3.57;;;17.50;99.90;;;;;;5097681;28;20456;-49
2022/04/29 09:23:54;;;;;;;4.53;3.37;;;17.70;99.90;;;;;;5092945;28;20403;-49
2022/04/29 09:26:24;;;;;;;7.00;4.13;;;17.60;99.90;;;;;;5108607;28;20517;-50
2022/04/29 09:28:52;;;;;;;11.63;3.40;;;17.30;99.90;;;;;;5113307;28;20391;-49
2022/04/29 09:31:18;;;;;;;4.07;3.70;;;17.60;99.90;;;;;;5097244;28;20404;-49
2022/04/29 09:33:57;;;;;;;7.97;3.57;;;17.80;99.90;;;;;;5101114;28;20547;-49
2022/04/29 09:36:25;;;;;;;5.80;3.80;;;17.50;99.90;;;;;;5112750;28;20192;-49
2022/04/29 09:41:36;;;;;;;16.00;4.37;;;17.00;99.90;;;;;;5092820;28;20426;-50
2022/04/29 09:44:02;;;;;;;7.73;3.50;;;17.10;99.90;;;;;;5102640;28;20422;-49
2022/04/29 09:46:28;;;;;;;6.33;3.70;;;16.80;99.90;;;;;;5112641;28;20677;-49
2022/04/29 09:48:53;;;;;;;13.70;3.30;;;16.80;99.90;;;;;;5103109;28;20770;-50
2022/04/29 09:51:52;;;;;;;7.80;3.10;;;16.60;99.90;;;;;;5092660;28;20173;-49
2022/04/29 09:54:22;;;;;;;6.13;3.10;;;16.60;99.90;;;;;;5050146;28;20196;-50
2022/04/29 09:57:16;;;;;;;4.77;2.67;;;16.30;99.90;;;;;;5092658;28;20834;-49
2022/04/29 09:59:46;;;;;;;9.20;3.67;;;16.20;99.90;;;;;;5101710;28;20461;-49
2022/04/29 10:02:21;;;;;;;4.23;2.90;;;16.10;99.90;;;;;;5112593;28;20418;-49
2022/04/29 10:04:48;;;;;;;5.27;3.27;;;16.10;99.90;;;;;;5097341;28;20429;-50
2022/04/29 10:07:16;;;;;;;6.90;3.47;;;16.50;99.90;;;;;;5091906;28;20411;-49
2022/04/29 10:09:45;;;;;;;4.90;3.40;;;16.80;99.90;;;;;;5105179;28;20843;-49
2022/04/29 10:12:13;;;;;;;4.57;2.83;;;17.10;99.90;;;;;;5097645;28;20416;-49
2022/04/29 10:14:40;;;;;;;4.60;3.40;;;17.30;99.90;;;;;;5091955;28;20177;-49
2022/04/29 10:22:53;;;;;;;4.40;2.80;;;17.60;99.90;;;;;;5091681;28;20426;-49
2022/04/29 10:25:21;;;;;;;4.40;2.93;;;17.80;99.90;;;;;;5107744;28;20445;-49
2022/04/29 10:27:49;;;;;;;5.37;3.60;;;18.10;99.90;;;;;;5110809;28;20484;-49
2022/04/29 10:30:17;;;;;;;3.60;3.27;;;18.10;99.90;;;;;;5099515;28;20459;-50
2022/04/29 10:33:05;;;;;;;10.87;4.50;;;18.10;99.90;;;;;;5111832;28;20880;-49
2022/04/29 10:35:40;;;;;;;6.73;3.77;;;17.60;99.90;;;;;;5101789;28;20414;-49
2022/04/29 10:38:17;;;;;;;8.87;3.60;;;17.60;99.90;;;;;;5103863;28;20425;-49
2022/04/29 10:40:44;;;;;;;5.27;3.40;;;18.00;99.90;;;;;;5091509;28;20820;-50
2022/04/29 10:43:11;;;;;;;4.23;3.43;;;18.60;99.90;;;;;;5103007;28;20472;-50
2022/04/29 10:46:09;;;;;;;8.93;3.30;;;18.80;99.90;;;;;;5111610;28;20426;-50
2022/04/29 10:48:39;;;;;;;3.30;3.00;;;18.50;99.90;;;;;;5110409;28;20550;-50
2022/04/29 10:51:27;;;;;;;5.70;3.10;;;18.10;99.90;;;;;;5111716;28;20425;-49
2022/04/29 10:53:55;;;;;;;9.10;2.80;;;17.70;99.90;;;;;;5103178;28;20434;-49
2022/04/29 10:56:30;;;;;;;5.23;2.90;;;17.50;99.90;;;;;;5111468;28;20878;-50
2022/04/29 10:59:09;;;;;;;3.67;3.30;;;17.20;99.90;;;;;;5111255;28;20407;-50
2022/04/29 11:01:36;;;;;;;10.77;4.13;;;17.30;99.90;;;;;;5111380;28;20743;-49
2022/04/29 11:04:06;;;;;;;7.90;3.30;;;17.60;99.90;;;;;;5111119;28;20874;-49
2022/04/29 11:06:49;;;;;;;5.37;3.40;;;18.10;99.90;;;;;;5104110;28;20458;-50
2022/04/29 11:09:46;;;;;;;8.93;3.73;;;18.60;99.90;;;;;;5091652;28;20450;-49
2022/04/29 11:12:29;;;;;;;4.70;3.60;;;19.10;99.90;;;;;;5090786;28;20422;-49
2022/04/29 11:15:05;;;;;;;6.97;3.90;;;19.30;99.90;;;;;;5093417;28;20415;-49
2022/04/29 11:17:38;;;;;;;7.30;3.57;;;20.00;99.90;;;;;;5104666;28;20449;-49
2022/04/29 11:20:23;;;;;;;21.03;4.47;;;20.20;99.90;;;;;;5103302;27;20470;-49
2022/04/29 11:25:52;;;;;;;4.60;3.40;;;19.80;99.90;;;;;;5109179;28;20458;-49
2022/04/29 11:28:19;;;;;;;6.10;3.33;;;19.50;99.90;;;;;;5106322;28;20441;-49
2022/04/29 11:30:46;;;;;;;5.63;4.00;;;19.80;99.90;;;;;;5104839;27;20934;-49
2022/04/29 11:33:11;;;;;;;5.17;3.10;;;20.20;99.90;;;;;;5090968;28;20429;-50
2022/04/29 11:35:37;;;;;;;3.23;2.93;;;20.60;99.90;;;;;;5107870;27;20565;-49
2022/04/29 11:38:02;;;;;;;5.50;3.93;;;21.10;99.90;;;;;;5102575;27;20203;-50
2022/04/29 11:40:28;;;;;;;4.40;3.47;;;21.00;99.90;;;;;;5103152;28;20228;-50
2022/04/29 11:42:54;;;;;;;5.30;4.40;;;20.60;99.90;;;;;;5100646;28;20241;-49
2022/04/29 11:45:22;;;;;;;7.07;3.70;;;20.00;99.90;;;;;;5099674;28;20195;-49
2022/04/29 11:47:47;;;;;;;13.13;3.70;;;20.00;99.90;;;;;;5109568;28;20460;-49
2022/04/29 11:50:13;;;;;;;14.10;3.70;;;20.50;99.90;;;;;;5110098;28;20986;-49
2022/04/29 11:52:39;;;;;;;6.77;3.70;;;20.50;99.90;;;;;;5104480;28;20250;-50
2022/04/29 11:55:08;;;;;;;8.13;4.20;;;20.60;99.90;;;;;;5110230;28;20205;-49
2022/04/29 11:57:42;;;;;;;5.03;3.70;;;20.80;99.90;;;;;;5107658;28;20457;-49
2022/04/29 12:00:09;;;;;;;7.07;3.40;;;20.50;99.90;;;;;;5092206;28;20569;-50
2022/04/29 12:02:35;;;;;;;5.20;3.70;;;20.40;99.90;;;;;;5096297;28;20411;-49
2022/04/29 12:05:04;;;;;;;10.13;4.30;;;20.10;99.90;;;;;;5106152;28;20425;-49
2022/04/29 12:07:38;;;;;;;6.57;4.80;;;19.60;99.90;;;;;;5094851;28;20784;-50
2022/04/29 12:10:15;;;;;;;4.73;3.90;;;18.70;99.90;;;;;;5112582;27;20463;-49
2022/04/29 12:12:40;;;;;;;6.93;4.90;;;18.30;99.90;;;;;;5104002;28;20419;-50
2022/04/29 12:15:09;;;;;;;5.20;4.63;;;18.40;99.90;;;;;;5105376;28;20430;-50
2022/04/29 12:17:40;;;;;;;8.77;4.90;;;18.20;99.90;;;;;;5113906;28;20192;-50
2022/04/29 12:20:27;;;;;;;18.33;5.37;;;18.30;99.90;;;;;;5114720;28;20492;-49
2022/04/29 12:22:53;;;;;;;6.60;4.80;;;18.10;99.90;;;;;;5093893;28;20777;-50
2022/04/29 12:25:27;;;;;;;15.23;5.10;;;18.10;99.90;;;;;;5112541;28;21004;-49
2022/04/29 12:28:06;;;;;;;9.23;5.37;;;18.30;99.90;;;;;;5093815;28;20446;-50
2022/04/29 12:36:13;;;;;;;8.30;4.23;;;19.10;99.90;;;;;;5111729;27;20456;-50
2022/04/29 12:38:41;;;;;;;5.83;4.67;;;19.20;99.90;;;;;;5108725;28;20427;-50
2022/04/29 12:41:24;;;;;;;9.30;4.90;;;18.90;99.90;;;;;;5093822;28;20439;-50
2022/04/29 12:44:05;;;;;;;9.70;5.60;;;18.60;99.90;;;;;;5099664;28;20418;-50
2022/04/29 12:46:31;;;;;;;13.03;5.90;;;18.30;99.90;;;;;;5113469;28;21293;-50
2022/04/29 12:48:57;;;;;;;13.20;6.07;;;17.90;99.90;;;;;;5107098;28;20489;-50
2022/04/29 12:51:24;;;;;;;9.33;5.60;;;17.90;99.90;;;;;;5093460;28;20174;-51
2022/04/29 12:53:50;;;;;;;8.03;5.60;;;18.10;99.90;;;;;;5084081;28;20541;-50
2022/04/29 12:56:36;;;;;;;16.80;6.77;;;18.40;99.90;;;;;;5105519;28;20437;-50
2022/04/29 12:59:04;;;;;;;11.10;6.43;;;18.50;99.90;;;;;;5104975;28;20419;-50
2022/04/29 13:01:40;;;;;;;7.78;6.28;;;18.70;99.90;;;;;;5113399;28;20407;-50
2022/04/29 13:04:06;;;;;;;7.53;5.40;;;18.60;99.90;;;;;;5109967;28;20215;-49
2022/04/29 13:06:35;;;;;;;10.30;5.80;;;18.80;99.90;;;;;;5107237;28;20430;-49
2022/04/29 13:09:02;;;;;;;10.33;6.10;;;18.90;99.90;;;;;;5113518;28;20418;-49
2022/04/29 13:11:30;;;;;;;7.03;6.00;;;18.30;99.90;;;;;;5113427;28;20413;-49
2022/04/29 13:13:56;;;;;;;10.03;6.60;;;18.10;99.90;;;;;;5110555;27;20458;-49
2022/04/29 13:16:22;;;;;;;7.60;5.40;;;18.30;99.90;;;;;;5111678;28;20476;-50
2022/04/29 13:18:49;;;;;;;14.13;6.00;;;18.70;99.90;;;;;;5106880;28;20248;-50
2022/04/29 13:21:15;;;;;;;7.60;5.50;;;18.80;99.90;;;;;;5099480;28;20439;-50
2022/04/29 13:23:42;;;;;;;6.50;5.40;;;18.70;99.90;;;;;;5097490;28;20813;-51
2022/04/29 13:26:13;;;;;;;8.47;5.97;;;18.60;99.90;;;;;;5095433;28;20435;-51